createdAt,value
2023-01-31T00:00:47.192Z,99740.80
2023-01-31T00:03:30.327Z,99736.60
2023-01-31T00:06:15.293Z,99736.00
2023-01-31T00:08:50.921Z,99734.20
2023-01-31T00:11:27.909Z,99734.40
2023-01-31T00:14:03.253Z,99741.20
2023-01-31T00:16:37.454Z,99746.60
2023-01-31T00:19:11.323Z,99738.60
2023-01-31T00:21:46.022Z,99743.80
2023-01-31T00:24:19.999Z,99755.80
2023-01-31T00:26:57.106Z,99764.20
2023-01-31T00:29:32.951Z,99762.20
2023-01-31T00:32:07.141Z,99755.60
2023-01-31T00:34:40.807Z,99763.40
2023-01-31T00:37:14.516Z,99771.60
2023-01-31T00:39:48.313Z,99777.40
2023-01-31T00:42:24.095Z,99781.20
2023-01-31T00:44:57.682Z,99781.40
2023-01-31T00:47:31.628Z,99784.80
2023-01-31T00:50:06.915Z,99788.40
2023-01-31T00:52:40.673Z,99794.40
2023-01-31T00:55:14.656Z,99787.20
2023-01-31T00:57:48.355Z,99805.40
2023-01-31T01:00:23.846Z,99812.60
2023-01-31T01:02:58.349Z,99813.40
2023-01-31T01:05:32.103Z,99817.00
2023-01-31T01:08:06.303Z,99815.60
2023-01-31T01:10:40.214Z,99825.40
2023-01-31T01:13:13.876Z,99836.20
2023-01-31T01:15:48.844Z,99834.00
2023-01-31T01:18:22.974Z,99829.80
2023-01-31T01:20:56.661Z,99828.20
2023-01-31T01:23:31.192Z,99825.60
2023-01-31T01:26:05.360Z,99826.40
2023-01-31T01:28:39.672Z,99830.80
2023-01-31T01:31:16.485Z,99838.00
2023-01-31T01:33:52.544Z,99843.60
2023-01-31T01:36:26.430Z,99839.80
2023-01-31T01:39:00.411Z,99849.60
2023-01-31T01:41:34.668Z,99855.40
2023-01-31T01:44:52.149Z,99858.00
2023-01-31T01:47:41.203Z,99858.00
2023-01-31T01:50:25.097Z,99855.40
2023-01-31T01:53:05.097Z,99861.00
2023-01-31T01:55:44.107Z,99860.00
2023-01-31T01:58:24.163Z,99867.40
2023-01-31T02:00:58.398Z,99868.60
2023-01-31T02:03:32.280Z,99865.00
2023-01-31T02:06:09.513Z,99876.00
2023-01-31T02:08:46.027Z,99872.20
2023-01-31T02:11:26.090Z,99881.00
2023-01-31T02:14:09.690Z,99881.60
2023-01-31T02:16:43.704Z,99885.00
2023-01-31T02:19:30.850Z,99886.40
2023-01-31T02:22:22.797Z,99888.60
2023-01-31T02:25:56.068Z,99897.40
2023-01-31T02:29:07.507Z,99898.80
2023-01-31T02:32:31.046Z,99911.60
2023-01-31T02:35:16.073Z,99914.60
2023-01-31T02:38:01.102Z,99917.20
2023-01-31T02:40:48.228Z,99936.60
2023-01-31T02:43:33.551Z,99945.00
2023-01-31T02:46:17.317Z,99939.80
2023-01-31T02:49:00.604Z,99950.80
2023-01-31T02:51:42.197Z,99959.20
2023-01-31T02:54:44.929Z,99964.60
2023-01-31T02:57:20.248Z,99962.40
2023-01-31T02:59:54.522Z,99989.60
2023-01-31T03:02:29.581Z,99987.40
2023-01-31T03:05:03.882Z,100003.60
2023-01-31T03:07:41.346Z,100008.60
2023-01-31T03:10:37.361Z,99999.00
2023-01-31T03:13:33.333Z,100008.80
2023-01-31T03:16:41.812Z,100015.40
2023-01-31T03:19:22.352Z,100011.20
2023-01-31T03:22:05.380Z,100024.40
2023-01-31T03:24:42.334Z,100018.40
2023-01-31T03:27:19.345Z,100018.20
2023-01-31T03:29:59.561Z,100026.80
2023-01-31T03:32:41.370Z,100027.00
2023-01-31T03:35:18.866Z,100038.40
2023-01-31T03:38:05.346Z,100046.80
2023-01-31T03:40:49.352Z,100053.80
2023-01-31T03:43:34.373Z,100051.00
2023-01-31T03:46:17.393Z,100047.00
2023-01-31T03:48:58.358Z,100057.00
2023-01-31T03:51:41.371Z,100047.20
2023-01-31T03:54:26.365Z,100055.20
2023-01-31T03:57:09.367Z,100057.00
2023-01-31T03:59:50.338Z,100053.00
2023-01-31T04:02:32.638Z,100053.00
2023-01-31T04:05:14.830Z,100053.40
2023-01-31T04:16:20.913Z,100081.00
2023-01-31T04:18:56.677Z,100089.60
2023-01-31T04:21:30.396Z,100091.80
2023-01-31T04:24:04.101Z,100089.40
2023-01-31T04:26:38.238Z,100087.20
2023-01-31T04:29:12.089Z,100089.40
2023-01-31T04:31:47.065Z,100095.80
2023-01-31T04:34:21.356Z,100099.60
2023-01-31T04:36:55.013Z,100097.40
2023-01-31T04:39:28.788Z,100107.20
2023-01-31T04:42:02.550Z,100105.20
2023-01-31T04:44:36.603Z,100106.80
2023-01-31T04:47:10.525Z,100105.00
2023-01-31T04:49:44.252Z,100113.60
2023-01-31T04:52:18.404Z,100113.80
2023-01-31T04:54:52.103Z,100113.40
2023-01-31T04:57:25.963Z,100121.00
2023-01-31T04:59:59.775Z,100124.60
2023-01-31T05:02:34.813Z,100120.60
2023-01-31T05:05:12.870Z,100119.60
2023-01-31T05:07:48.464Z,100129.80
2023-01-31T05:10:22.528Z,100122.80
2023-01-31T05:12:56.265Z,100121.40
2023-01-31T05:15:30.145Z,100133.20
2023-01-31T05:18:04.880Z,100134.20
2023-01-31T05:20:41.043Z,100131.00
2023-01-31T05:23:15.026Z,100138.60
2023-01-31T05:25:52.016Z,100136.20
2023-01-31T05:28:26.982Z,100144.00
2023-01-31T05:31:08.721Z,100143.60
2023-01-31T05:33:43.275Z,100151.00
2023-01-31T05:36:17.132Z,100149.20
2023-01-31T05:38:51.378Z,100150.20
2023-01-31T05:41:25.699Z,100162.00
2023-01-31T05:43:59.321Z,100160.80
2023-01-31T05:46:33.013Z,100167.60
2023-01-31T05:49:07.355Z,100172.40
2023-01-31T05:51:41.662Z,100173.60
2023-01-31T05:54:16.982Z,100179.40
2023-01-31T05:56:50.689Z,100177.00
2023-01-31T05:59:26.438Z,100187.80
2023-01-31T06:02:00.195Z,100190.80
2023-01-31T06:04:34.256Z,100193.20
2023-01-31T06:07:08.712Z,100195.80
2023-01-31T06:09:43.059Z,100195.40
2023-01-31T06:12:18.033Z,100199.40
2023-01-31T06:14:51.950Z,100206.20
2023-01-31T06:17:25.879Z,100209.60
2023-01-31T06:20:00.342Z,100206.40
2023-01-31T06:22:34.336Z,100227.00
2023-01-31T06:25:10.224Z,100224.40
2023-01-31T06:27:45.044Z,100227.00
2023-01-31T06:30:19.968Z,100235.40
2023-01-31T06:32:53.820Z,100241.60
2023-01-31T06:35:27.686Z,100242.80
2023-01-31T06:38:01.571Z,100236.40
2023-01-31T06:40:36.895Z,100247.40
2023-01-31T06:43:10.666Z,100242.60
2023-01-31T06:45:47.204Z,100246.40
2023-01-31T06:48:21.250Z,100247.00
2023-01-31T06:50:55.687Z,100247.40
2023-01-31T06:53:30.349Z,100253.00
2023-01-31T06:56:05.586Z,100256.80
2023-01-31T06:58:39.477Z,100266.60
2023-01-31T07:01:15.445Z,100267.20
2023-01-31T07:03:50.186Z,100267.60
2023-01-31T07:06:24.440Z,100266.80
2023-01-31T07:08:58.441Z,100283.40
2023-01-31T07:11:32.623Z,100277.20
2023-01-31T07:14:06.641Z,100274.60
2023-01-31T07:16:40.725Z,100273.20
2023-01-31T07:19:14.907Z,100275.40
2023-01-31T07:21:49.261Z,100281.20
2023-01-31T07:24:23.325Z,100283.20
2023-01-31T07:26:57.886Z,100289.20
2023-01-31T07:29:32.453Z,100292.40
2023-01-31T07:32:06.773Z,100294.40
2023-01-31T07:34:40.469Z,100299.60
2023-01-31T07:37:14.352Z,100309.00
2023-01-31T07:39:48.292Z,100317.40
2023-01-31T07:42:22.045Z,100321.20
2023-01-31T07:44:56.037Z,100328.60
2023-01-31T07:47:30.010Z,100332.20
2023-01-31T07:50:03.791Z,100333.80
2023-01-31T07:52:37.607Z,100336.60
2023-01-31T07:55:13.228Z,100331.80
2023-01-31T07:57:47.393Z,100332.60
2023-01-31T08:00:40.893Z,100339.80
2023-01-31T08:03:34.046Z,100343.20
2023-01-31T08:06:14.066Z,100338.00
2023-01-31T08:08:49.198Z,100339.60
2023-01-31T08:11:25.388Z,100342.40
2023-01-31T08:14:00.061Z,100341.20
2023-01-31T08:16:34.163Z,100348.80
2023-01-31T08:19:09.080Z,100346.40
2023-01-31T08:21:43.471Z,100338.40
2023-01-31T08:24:17.447Z,100341.80
2023-01-31T08:26:51.450Z,100341.80
2023-01-31T08:29:25.858Z,100342.80
2023-01-31T08:32:03.397Z,100340.60
2023-01-31T08:34:37.442Z,100344.20
2023-01-31T08:37:11.843Z,100351.40
2023-01-31T08:39:46.348Z,100355.40
2023-01-31T08:42:20.349Z,100353.60
2023-01-31T08:44:55.249Z,100351.20
2023-01-31T08:47:30.244Z,100353.60
2023-01-31T08:50:04.411Z,100348.40
2023-01-31T08:52:38.417Z,100342.00
2023-01-31T08:55:14.178Z,100351.60
2023-01-31T08:57:58.444Z,100353.20
2023-01-31T09:00:34.487Z,100356.00
2023-01-31T09:03:08.579Z,100353.40
2023-01-31T09:05:42.385Z,100357.20
2023-01-31T09:08:17.018Z,100364.00
2023-01-31T09:10:57.441Z,100368.60
2023-01-31T09:13:33.402Z,100368.20
2023-01-31T09:16:10.424Z,100373.40
2023-01-31T09:18:45.836Z,100376.00
2023-01-31T09:21:23.078Z,100375.80
2023-01-31T09:24:04.033Z,100383.80
2023-01-31T09:26:38.316Z,100380.80
2023-01-31T09:29:12.586Z,100383.80
2023-01-31T09:31:46.807Z,100386.20
2023-01-31T09:34:22.038Z,100383.80
2023-01-31T09:36:57.852Z,100393.60
2023-01-31T09:39:31.922Z,100394.80
2023-01-31T09:42:19.310Z,100396.00
2023-01-31T09:45:04.052Z,100395.80
2023-01-31T09:47:42.901Z,100392.00
2023-01-31T09:50:31.943Z,100389.80
2023-01-31T09:53:06.229Z,100395.60
2023-01-31T09:55:53.275Z,100390.40
2023-01-31T09:58:41.164Z,100387.40
2023-01-31T10:01:25.026Z,100386.60
2023-01-31T10:04:18.501Z,100378.80
2023-01-31T10:06:59.998Z,100372.60
2023-01-31T10:09:41.986Z,100366.40
2023-01-31T10:12:22.315Z,100370.20
2023-01-31T10:15:01.223Z,100365.60
2023-01-31T10:17:52.735Z,100355.80
2023-01-31T10:20:39.847Z,100349.60
2023-01-31T10:23:26.391Z,100345.00
2023-01-31T10:26:07.474Z,100344.60
2023-01-31T10:28:50.899Z,100339.00
2023-01-31T10:31:36.308Z,100335.00
2023-01-31T10:34:17.564Z,100336.40
2023-01-31T10:36:57.911Z,100330.60
2023-01-31T10:39:38.843Z,100335.60
2023-01-31T10:42:31.776Z,100335.00
2023-01-31T10:45:17.480Z,100350.00
2023-01-31T10:48:01.415Z,100353.80
2023-01-31T10:50:46.323Z,100353.80
2023-01-31T10:53:45.154Z,100359.60
2023-01-31T10:56:30.795Z,100361.80
2023-01-31T10:59:13.551Z,100356.80
2023-01-31T11:01:47.662Z,100352.40
2023-01-31T11:04:31.822Z,100344.80
2023-01-31T11:07:07.505Z,100340.80
2023-01-31T11:09:48.417Z,100327.20
2023-01-31T11:12:23.475Z,100322.20
2023-01-31T11:15:18.989Z,100313.20
2023-01-31T11:17:55.304Z,100312.40
2023-01-31T11:20:35.459Z,100315.80
2023-01-31T11:23:18.313Z,100317.80
2023-01-31T11:25:57.204Z,100317.60
2023-01-31T11:28:40.085Z,100301.20
2023-01-31T11:31:28.648Z,100302.20
2023-01-31T11:34:06.673Z,100295.80
2023-01-31T11:36:47.287Z,100287.40
2023-01-31T11:39:32.605Z,100289.20
2023-01-31T11:42:18.571Z,100281.60
2023-01-31T11:45:05.577Z,100280.80
2023-01-31T11:47:47.717Z,100275.00
2023-01-31T11:50:32.185Z,100280.60
2023-01-31T11:53:19.226Z,100286.20
2023-01-31T11:55:57.212Z,100270.40
2023-01-31T11:58:38.758Z,100268.20
2023-01-31T12:01:21.433Z,100259.40
2023-01-31T12:04:03.903Z,100256.40
2023-01-31T12:06:40.905Z,100257.00
2023-01-31T12:09:27.936Z,100246.40
2023-01-31T12:12:07.673Z,100242.00
2023-01-31T12:14:49.004Z,100237.00
2023-01-31T12:17:24.253Z,100242.60
2023-01-31T12:20:28.948Z,100238.80
2023-01-31T12:23:24.314Z,100240.80
2023-01-31T12:26:13.075Z,100243.60
2023-01-31T12:29:25.607Z,100239.40
2023-01-31T12:32:25.880Z,100241.80
2023-01-31T12:35:25.299Z,100237.60
2023-01-31T12:38:18.432Z,100241.40
2023-01-31T12:41:04.419Z,100237.60
2023-01-31T12:44:04.626Z,100233.60
2023-01-31T12:47:04.689Z,100224.60
2023-01-31T12:50:14.074Z,100215.40
2023-01-31T12:53:15.559Z,100216.20
2023-01-31T12:56:07.548Z,100214.20
2023-01-31T12:59:13.684Z,100217.60
2023-01-31T13:01:57.938Z,100204.80
2023-01-31T13:04:54.536Z,100198.00
2023-01-31T13:07:36.812Z,100192.40
2023-01-31T13:10:40.210Z,100192.80
2023-01-31T13:13:25.882Z,100198.00
2023-01-31T13:16:06.998Z,100184.00
2023-01-31T13:18:43.048Z,100195.80
2023-01-31T13:21:23.196Z,100191.40
2023-01-31T13:24:04.414Z,100190.60
2023-01-31T13:26:46.033Z,100181.80
2023-01-31T13:29:29.999Z,100177.00
2023-01-31T13:32:12.420Z,100172.80
2023-01-31T13:34:54.263Z,100166.00
2023-01-31T13:37:30.510Z,100159.60
2023-01-31T13:40:19.886Z,100161.40
2023-01-31T13:42:56.061Z,100154.40
2023-01-31T13:45:34.951Z,100155.00
2023-01-31T13:48:20.758Z,100151.60
2023-01-31T13:51:01.362Z,100149.60
2023-01-31T13:53:45.581Z,100152.00
2023-01-31T13:56:28.284Z,100155.40
2023-01-31T13:59:04.080Z,100154.40
2023-01-31T14:01:48.515Z,100152.60
2023-01-31T14:04:40.276Z,100148.80
2023-01-31T14:07:29.061Z,100153.40
2023-01-31T14:10:44.125Z,100147.40
2023-01-31T14:13:47.082Z,100144.40
2023-01-31T14:16:44.333Z,100142.40
2023-01-31T14:20:02.836Z,100136.00
2023-01-31T14:22:40.334Z,100136.60
2023-01-31T14:25:39.580Z,100134.60
2023-01-31T14:28:15.986Z,100134.20
2023-01-31T14:30:50.834Z,100129.40
2023-01-31T14:33:29.281Z,100127.40
2023-01-31T14:36:46.114Z,100130.80
2023-01-31T14:40:10.236Z,100120.80
2023-01-31T14:43:18.141Z,100120.60
2023-01-31T14:46:36.791Z,100119.60
2023-01-31T14:49:38.791Z,100110.40
2023-01-31T14:52:35.351Z,100100.40
2023-01-31T14:55:46.141Z,100108.80
2023-01-31T14:58:26.170Z,100105.20
2023-01-31T15:01:03.613Z,100104.60
2023-01-31T15:03:49.955Z,100111.00
2023-01-31T15:06:33.641Z,100105.60
2023-01-31T15:09:40.737Z,100103.60
2023-01-31T15:12:56.055Z,100102.00
2023-01-31T15:15:38.883Z,100093.60
2023-01-31T15:18:25.076Z,100093.40
2023-01-31T15:21:03.485Z,100096.80
2023-01-31T15:23:43.415Z,100096.40
2023-01-31T15:26:20.429Z,100090.80
2023-01-31T15:28:55.266Z,100097.60
2023-01-31T15:31:36.792Z,100095.00
2023-01-31T15:34:24.579Z,100096.00
2023-01-31T15:37:18.084Z,100093.60
2023-01-31T15:39:59.789Z,100085.20
2023-01-31T15:42:36.403Z,100083.80
2023-01-31T15:45:27.077Z,100088.40
2023-01-31T15:48:09.208Z,100086.60
2023-01-31T15:50:54.883Z,100088.60
2023-01-31T15:53:33.240Z,100085.00
2023-01-31T15:56:16.343Z,100082.80
2023-01-31T15:58:55.072Z,100082.80
2023-01-31T16:01:31.572Z,100075.60
2023-01-31T16:04:06.546Z,100066.20
2023-01-31T16:06:41.624Z,100071.80
2023-01-31T16:09:30.644Z,100062.00
2023-01-31T16:12:07.135Z,100059.60
2023-01-31T16:14:43.856Z,100065.20
2023-01-31T16:17:19.720Z,100059.00
2023-01-31T16:19:54.873Z,100055.40
2023-01-31T16:22:32.175Z,100048.40
2023-01-31T16:25:19.345Z,100045.00
2023-01-31T16:27:55.402Z,100051.00
2023-01-31T16:30:30.755Z,100047.20
2023-01-31T16:33:05.060Z,100042.20
2023-01-31T16:35:39.265Z,100044.40
2023-01-31T16:38:27.628Z,100035.40
2023-01-31T16:41:08.000Z,100036.00
2023-01-31T16:43:44.320Z,100024.60
2023-01-31T16:46:39.887Z,100018.40
2023-01-31T16:49:26.655Z,100011.00
2023-01-31T16:52:16.281Z,100004.80
2023-01-31T16:54:55.443Z,99999.00
2023-01-31T16:57:40.191Z,100000.80
2023-01-31T17:00:37.914Z,100002.80
2023-01-31T17:03:22.088Z,100003.80
2023-01-31T17:05:56.324Z,99994.40
2023-01-31T17:08:30.224Z,99989.40
2023-01-31T17:11:04.222Z,99986.40
2023-01-31T17:13:39.791Z,99987.60
2023-01-31T17:16:27.100Z,99995.60
2023-01-31T17:19:00.953Z,99990.80
2023-01-31T17:21:42.937Z,99988.40
2023-01-31T17:24:23.641Z,99977.40
2023-01-31T17:26:58.091Z,99968.00
2023-01-31T17:29:32.065Z,99960.20
2023-01-31T17:32:05.953Z,99960.20
2023-01-31T17:34:41.085Z,99951.80
2023-01-31T17:37:18.046Z,99946.20
2023-01-31T17:39:54.725Z,99953.00
2023-01-31T17:42:28.714Z,99944.60
2023-01-31T17:45:02.930Z,99946.20
2023-01-31T17:47:36.743Z,99938.80
2023-01-31T17:50:17.512Z,99934.80
2023-01-31T17:52:51.950Z,99927.20
2023-01-31T17:55:26.254Z,99928.00
2023-01-31T17:58:00.105Z,99919.20
2023-01-31T18:00:34.204Z,99918.20
2023-01-31T18:03:08.435Z,99914.20
2023-01-31T18:05:42.614Z,99907.80
2023-01-31T18:08:17.663Z,99906.20
2023-01-31T18:10:51.779Z,99911.40
2023-01-31T18:13:25.443Z,99903.00
2023-01-31T18:16:09.387Z,99903.20
2023-01-31T18:18:45.161Z,99892.20
2023-01-31T18:21:23.488Z,99902.20
2023-01-31T18:24:00.291Z,99893.60
2023-01-31T18:26:34.452Z,99891.00
2023-01-31T18:29:08.393Z,99890.40
2023-01-31T18:31:44.921Z,99883.80
2023-01-31T18:34:21.006Z,99891.00
2023-01-31T18:36:55.342Z,99878.80
2023-01-31T18:39:29.477Z,99883.80
2023-01-31T18:42:03.819Z,99875.20
2023-01-31T18:44:41.745Z,99860.60
2023-01-31T18:47:17.130Z,99862.60
2023-01-31T18:49:50.949Z,99851.60
2023-01-31T18:52:25.053Z,99852.80
2023-01-31T18:54:59.933Z,99842.40
2023-01-31T18:57:35.661Z,99847.20
2023-01-31T19:00:12.643Z,99848.40
2023-01-31T19:02:51.981Z,99849.20
2023-01-31T19:05:28.168Z,99855.20
2023-01-31T19:08:02.255Z,99864.40
2023-01-31T19:10:36.946Z,99868.80
2023-01-31T19:13:10.911Z,99865.20
2023-01-31T19:15:44.713Z,99861.40
2023-01-31T19:18:18.677Z,99852.40
2023-01-31T19:20:54.981Z,99845.60
2023-01-31T19:23:29.750Z,99840.20
2023-01-31T19:26:07.128Z,99847.00
2023-01-31T19:28:41.945Z,99836.40
2023-01-31T19:31:19.126Z,99835.00
2023-01-31T19:33:56.544Z,99835.40
2023-01-31T19:36:33.780Z,99837.00
2023-01-31T19:39:11.762Z,99834.60
2023-01-31T19:41:45.722Z,99827.00
2023-01-31T19:44:20.840Z,99821.40
2023-01-31T19:46:55.078Z,99824.60
2023-01-31T19:49:29.007Z,99818.20
2023-01-31T19:52:03.499Z,99810.20
2023-01-31T19:54:38.677Z,99807.00
2023-01-31T19:57:14.599Z,99793.40
2023-01-31T19:59:48.633Z,99797.60
2023-01-31T20:02:22.429Z,99788.60
2023-01-31T20:04:57.869Z,99785.60
2023-01-31T20:07:31.850Z,99782.00
2023-01-31T20:10:06.936Z,99784.20
2023-01-31T20:12:41.903Z,99774.20
2023-01-31T20:15:16.418Z,99780.00
2023-01-31T20:17:50.436Z,99770.60
2023-01-31T20:20:24.709Z,99768.40
2023-01-31T20:22:59.551Z,99776.80
2023-01-31T20:25:33.992Z,99786.80
2023-01-31T20:28:08.491Z,99792.20
2023-01-31T20:30:42.884Z,99786.20
2023-01-31T20:33:17.553Z,99783.00
2023-01-31T20:35:52.548Z,99782.40
2023-01-31T20:38:27.161Z,99789.60
2023-01-31T20:41:01.375Z,99783.60
2023-01-31T20:43:35.768Z,99776.00
2023-01-31T20:46:12.554Z,99783.60
2023-01-31T20:48:47.114Z,99798.60
2023-01-31T20:51:21.499Z,99787.20
2023-01-31T20:53:55.894Z,99787.60
2023-01-31T20:56:31.341Z,99788.80
2023-01-31T20:59:05.566Z,99780.60
2023-01-31T21:01:40.036Z,99794.40
2023-01-31T21:04:14.893Z,99792.80
2023-01-31T21:06:48.712Z,99783.40
2023-01-31T21:09:23.319Z,99780.60
2023-01-31T21:11:57.326Z,99768.20
2023-01-31T21:14:31.679Z,99776.60
2023-01-31T21:17:05.967Z,99776.80
2023-01-31T21:19:40.179Z,99768.40
2023-01-31T21:22:14.055Z,99763.40
2023-01-31T21:24:48.404Z,99754.60
2023-01-31T21:27:22.362Z,99752.40
2023-01-31T21:29:56.814Z,99748.00
2023-01-31T21:32:32.827Z,99742.20
2023-01-31T21:35:07.529Z,99731.80
2023-01-31T21:37:41.816Z,99741.20
2023-01-31T21:40:17.486Z,99743.20
2023-01-31T21:42:54.473Z,99738.40
2023-01-31T21:45:40.547Z,99747.00
2023-01-31T21:48:31.187Z,99740.60
2023-01-31T21:51:09.808Z,99751.00
2023-01-31T21:53:44.500Z,99741.60
2023-01-31T21:56:21.462Z,99736.60
2023-01-31T21:58:58.337Z,99722.60
2023-01-31T22:01:35.573Z,99721.20
2023-01-31T22:04:09.839Z,99720.00
2023-01-31T22:06:45.304Z,99730.00
2023-01-31T22:09:20.676Z,99720.60
2023-01-31T22:11:54.741Z,99721.80
2023-01-31T22:14:28.783Z,99715.80
2023-01-31T22:17:02.971Z,99721.00
2023-01-31T22:19:37.073Z,99716.00
2023-01-31T22:22:11.712Z,99715.80
2023-01-31T22:24:46.741Z,99718.60
2023-01-31T22:27:20.585Z,99714.80
2023-01-31T22:30:00.771Z,99711.20
2023-01-31T22:32:37.570Z,99718.80
2023-01-31T22:35:13.769Z,99713.40
2023-01-31T22:37:47.873Z,99711.00
2023-01-31T22:40:23.197Z,99705.00
2023-01-31T22:42:57.262Z,99694.20
2023-01-31T22:45:31.019Z,99701.40
2023-01-31T22:48:05.386Z,99705.00
2023-01-31T22:50:39.343Z,99744.20
2023-01-31T22:54:11.964Z,99836.40
2023-01-31T22:56:46.956Z,99824.00
2023-01-31T22:59:21.107Z,99821.40
2023-01-31T23:01:54.871Z,99816.40
2023-01-31T23:12:21.701Z,99828.40
2023-01-31T23:14:56.245Z,99836.40
2023-01-31T23:17:39.016Z,99800.00
2023-01-31T23:20:18.215Z,99786.60
2023-01-31T23:22:57.461Z,99796.20
2023-01-31T23:25:32.266Z,99790.00
2023-01-31T23:28:06.793Z,99787.60
2023-01-31T23:30:40.752Z,99784.00
2023-01-31T23:33:14.925Z,99784.20
2023-01-31T23:35:48.968Z,99787.20
2023-01-31T23:38:23.099Z,99789.00
2023-01-31T23:40:57.247Z,99795.40
2023-01-31T23:43:31.022Z,99788.40
2023-01-31T23:46:04.760Z,99796.20
2023-01-31T23:48:40.038Z,99798.80
2023-01-31T23:51:14.192Z,99798.60
2023-01-31T23:53:47.992Z,99808.40
2023-01-31T23:56:21.758Z,99805.20
2023-01-31T23:58:55.812Z,99810.60
